sensor_id;sensor_type;location;lat;lon;timestamp;pressure;altitude;pressure_sealevel;temperature;humidity
64086;BME280;50333;47.436;21.390;2023-02-16T00:01:31;102053.84;;;2.76;70.15
64086;BME280;50333;47.436;21.390;2023-02-16T00:06:00;102058.00;;;2.77;69.93
64086;BME280;50333;47.436;21.390;2023-02-16T00:13:51;102060.22;;;2.40;70.28
64086;BME280;50333;47.436;21.390;2023-02-16T05:19:20;101923.41;;;0.56;75.99
64086;BME280;50333;47.436;21.390;2023-02-16T05:24:05;101921.66;;;0.73;75.37
64086;BME280;50333;47.436;21.390;2023-02-16T05:28:11;101923.66;;;1.04;74.17
64086;BME280;50333;47.436;21.390;2023-02-16T05:32:11;101918.03;;;1.17;73.32
64086;BME280;50333;47.436;21.390;2023-02-16T05:36:20;101924.13;;;0.99;73.26
64086;BME280;50333;47.436;21.390;2023-02-16T05:40:47;101928.31;;;1.00;73.66
64086;BME280;50333;47.436;21.390;2023-02-16T05:45:13;101934.34;;;0.74;74.68
64086;BME280;50333;47.436;21.390;2023-02-16T05:50:11;101941.16;;;1.17;72.97
64086;BME280;50333;47.436;21.390;2023-02-16T05:54:08;101942.44;;;0.96;73.51
64086;BME280;50333;47.436;21.390;2023-02-16T05:57:55;101949.47;;;0.86;73.95
64086;BME280;50333;47.436;21.390;2023-02-16T06:12:02;101952.44;;;1.24;72.85
64086;BME280;50333;47.436;21.390;2023-02-16T06:16:10;101967.47;;;1.02;72.84
64086;BME280;50333;47.436;21.390;2023-02-16T06:20:16;101961.06;;;1.15;72.54
64086;BME280;50333;47.436;21.390;2023-02-16T14:12:42;101672.94;;;10.12;52.89
64086;BME280;50333;47.436;21.390;2023-02-16T14:17:48;101660.34;;;9.55;54.67
64086;BME280;50333;47.436;21.390;2023-02-16T14:30:04;101636.34;;;9.53;56.08
64086;BME280;50333;47.436;21.390;2023-02-16T14:34:35;101634.38;;;9.79;55.80
64086;BME280;50333;47.436;21.390;2023-02-16T14:41:54;101621.13;;;9.80;54.89
64086;BME280;50333;47.436;21.390;2023-02-16T14:58:46;101610.00;;;9.73;55.08
64086;BME280;50333;47.436;21.390;2023-02-16T15:02:30;101618.97;;;10.01;54.51
64086;BME280;50333;47.436;21.390;2023-02-16T15:06:02;101616.94;;;9.79;54.78
64086;BME280;50333;47.436;21.390;2023-02-16T15:09:58;101616.13;;;9.67;54.87
64086;BME280;50333;47.436;21.390;2023-02-16T15:13:46;101617.63;;;9.44;54.71
64086;BME280;50333;47.436;21.390;2023-02-16T15:17:45;101613.50;;;9.25;54.88
64086;BME280;50333;47.436;21.390;2023-02-16T15:25:59;101599.97;;;9.47;54.94
64086;BME280;50333;47.436;21.390;2023-02-16T15:30:04;101604.00;;;9.73;54.35
64086;BME280;50333;47.436;21.390;2023-02-16T15:47:08;101602.28;;;9.24;56.51
64086;BME280;50333;47.436;21.390;2023-02-16T16:06:03;101601.22;;;9.44;55.75
64086;BME280;50333;47.436;21.390;2023-02-16T16:09:55;101604.75;;;9.50;55.58
64086;BME280;50333;47.436;21.390;2023-02-16T19:07:36;101585.59;;;5.55;65.75
64086;BME280;50333;47.436;21.390;2023-02-16T19:12:21;101585.16;;;5.32;65.62
64086;BME280;50333;47.436;21.390;2023-02-16T19:16:12;101576.81;;;5.29;66.56
64086;BME280;50333;47.436;21.390;2023-02-16T19:20:28;101567.06;;;5.32;66.66
64086;BME280;50333;47.436;21.390;2023-02-16T19:25:08;101561.63;;;5.13;67.18
64086;BME280;50333;47.436;21.390;2023-02-16T19:29:24;101561.44;;;5.15;67.72
64086;BME280;50333;47.436;21.390;2023-02-16T19:32:57;101561.06;;;5.18;67.36
64086;BME280;50333;47.436;21.390;2023-02-16T19:36:51;101569.88;;;4.82;68.46
64086;BME280;50333;47.436;21.390;2023-02-16T19:40:48;101572.75;;;5.14;67.61
64086;BME280;50333;47.436;21.390;2023-02-16T19:44:49;101562.03;;;5.10;67.44
64086;BME280;50333;47.436;21.390;2023-02-16T19:49:06;101566.53;;;4.88;68.21
64086;BME280;50333;47.436;21.390;2023-02-16T20:21:50;101567.44;;;4.67;68.11
64086;BME280;50333;47.436;21.390;2023-02-16T20:30:43;101560.09;;;4.77;67.99
64086;BME280;50333;47.436;21.390;2023-02-16T20:38:07;101565.13;;;4.85;68.35
64086;BME280;50333;47.436;21.390;2023-02-16T20:42:15;101564.38;;;4.98;67.51
64086;BME280;50333;47.436;21.390;2023-02-16T21:13:42;101563.75;;;5.64;68.02
64086;BME280;50333;47.436;21.390;2023-02-16T21:17:27;101560.53;;;5.62;68.10
64086;BME280;50333;47.436;21.390;2023-02-16T21:21:43;101562.53;;;5.74;67.40
64086;BME280;50333;47.436;21.390;2023-02-16T21:25:22;101557.38;;;5.74;67.10
64086;BME280;50333;47.436;21.390;2023-02-16T21:28:50;101554.19;;;5.72;67.20
64086;BME280;50333;47.436;21.390;2023-02-16T21:32:33;101566.13;;;5.66;67.27
64086;BME280;50333;47.436;21.390;2023-02-16T21:36:05;101558.94;;;5.55;67.32
64086;BME280;50333;47.436;21.390;2023-02-16T21:39:34;101554.75;;;5.47;67.44
64086;BME280;50333;47.436;21.390;2023-02-16T21:43:27;101551.97;;;5.48;67.44
64086;BME280;50333;47.436;21.390;2023-02-16T21:46:01;101548.59;;;5.35;67.74
64086;BME280;50333;47.436;21.390;2023-02-16T21:48:34;101549.84;;;4.90;69.26
64086;BME280;50333;47.436;21.390;2023-02-16T21:51:20;101545.28;;;4.99;69.35
64086;BME280;50333;47.436;21.390;2023-02-16T21:54:11;101537.19;;;5.22;68.42
64086;BME280;50333;47.436;21.390;2023-02-16T21:59:13;101529.75;;;4.93;69.38
64086;BME280;50333;47.436;21.390;2023-02-16T22:06:00;101532.25;;;5.21;68.24
64086;BME280;50333;47.436;21.390;2023-02-16T22:09:27;101523.06;;;5.18;67.98
64086;BME280;50333;47.436;21.390;2023-02-16T22:13:27;101532.66;;;5.38;67.34
64086;BME280;50333;47.436;21.390;2023-02-16T22:17:16;101533.47;;;5.38;66.87
64086;BME280;50333;47.436;21.390;2023-02-16T22:21:28;101531.06;;;5.50;66.54
64086;BME280;50333;47.436;21.390;2023-02-16T22:26:18;101522.50;;;5.29;66.98
64086;BME280;50333;47.436;21.390;2023-02-16T22:29:51;101515.28;;;5.05;67.55
64086;BME280;50333;47.436;21.390;2023-02-16T22:33:43;101511.87;;;4.84;68.27
64086;BME280;50333;47.436;21.390;2023-02-16T22:37:33;101515.31;;;4.57;69.87
64086;BME280;50333;47.436;21.390;2023-02-16T22:41:13;101512.84;;;4.83;69.08
64086;BME280;50333;47.436;21.390;2023-02-16T22:45:35;101501.09;;;4.74;69.23
64086;BME280;50333;47.436;21.390;2023-02-16T22:49:53;101499.16;;;4.96;68.03
64086;BME280;50333;47.436;21.390;2023-02-16T22:54:02;101504.47;;;4.75;68.25
64086;BME280;50333;47.436;21.390;2023-02-16T22:58:50;101507.34;;;5.13;67.08
64086;BME280;50333;47.436;21.390;2023-02-16T23:01:59;101502.44;;;4.63;68.20
64086;BME280;50333;47.436;21.390;2023-02-16T23:05:10;101513.69;;;4.97;67.49
64086;BME280;50333;47.436;21.390;2023-02-16T23:08:10;101507.13;;;5.08;66.83
64086;BME280;50333;47.436;21.390;2023-02-16T23:11:20;101503.19;;;5.05;66.83
64086;BME280;50333;47.436;21.390;2023-02-16T23:14:55;101503.12;;;4.92;67.15
64086;BME280;50333;47.436;21.390;2023-02-16T23:18:50;101506.06;;;4.82;67.25
64086;BME280;50333;47.436;21.390;2023-02-16T23:22:29;101497.38;;;4.90;67.44
64086;BME280;50333;47.436;21.390;2023-02-16T23:26:39;101501.50;;;4.78;68.06
64086;BME280;50333;47.436;21.390;2023-02-16T23:30:27;101495.00;;;4.47;69.34
64086;BME280;50333;47.436;21.390;2023-02-16T23:33:24;101490.66;;;4.54;68.94
64086;BME280;50333;47.436;21.390;2023-02-16T23:36:22;101492.50;;;4.60;68.58
64086;BME280;50333;47.436;21.390;2023-02-16T23:39:57;101497.63;;;4.53;68.29
64086;BME280;50333;47.436;21.390;2023-02-16T23:43:12;101487.78;;;4.70;68.22
64086;BME280;50333;47.436;21.390;2023-02-16T23:46:38;101482.94;;;4.61;68.22
64086;BME280;50333;47.436;21.390;2023-02-16T23:50:00;101477.84;;;4.26;69.59
64086;BME280;50333;47.436;21.390;2023-02-16T23:53:15;101483.53;;;4.14;70.21
64086;BME280;50333;47.436;21.390;2023-02-16T23:56:10;101470.75;;;4.00;71.10
64086;BME280;50333;47.436;21.390;2023-02-16T23:59:00;101474.16;;;3.50;72.42
